Rechercher aéroport 
image banner adimage banner adimage banner ad
image banner ad

93CA - Fountain Valley Rgnl Hospital

Situé à Fountain Valley, United States

ICAO - 93CA, IATA -

Données fournies par Airmate  

Information générale

Coordonnées: N33°42'50" W117°56'9"
Élévation : 38 feet MSL.
Variation magnétique : 14° East
Voir autres Aéroports à California

Données opérationnelles

Special qualification required
Heure actuelle UTC:
Heure actuelle locale:
METAR: KSNA 231453Z 00000KT 9SM FEW160 FEW210 20/16 A2992 RMK AO2 SLP132 T02000161 53002
TAF: KSNA 231125Z 2312/2412 20004KT P6SM FEW150 FM231900 24008KT P6SM SCT100 FM240200 22004KT P6SM SCT100 FM241100 VRB03KT 5SM BR BKN006
Voir NOTAMs / SUP AIP / TFR affectant cet aéroport [VIEW]
Fréquences de communication: [VIEW]

Pistes:

Coordonnées de l'aéroport

Adresse: Fountain Valley United States

Vue satellite de 93CA